Time;durP1;ratioP1;P1;durP2;ratioP2;P2;SDS_P1;SDS_P2;PMS_P1;PMS_P2;Temp;Humidity;BMP_temperature;BMP_pressure;BME280_temperature;BME280_humidity;BME280_pressure;Samples;Min_cycle;Max_cycle;Signal;HPM_P1;HPM_P2
2022/09/08 00:00:38;;;;;;;1.25;1.15;;;24.30;59.00;;;;;;10125445;29;20068;-56
2022/09/08 00:06:03;;;;;;;1.95;1.00;;;24.30;59.10;;;;;;10125164;29;20049;-53
2022/09/08 00:11:06;;;;;;;1.98;1.10;;;24.30;59.10;;;;;;10108574;29;20045;-56
2022/09/08 00:16:10;;;;;;;1.20;0.90;;;24.20;59.10;;;;;;10125088;29;20029;-55
2022/09/08 00:21:11;;;;;;;1.38;0.88;;;24.20;59.10;;;;;;10140649;29;20029;-55
2022/09/08 00:26:11;;;;;;;2.95;1.92;;;24.20;59.00;;;;;;10131104;29;20033;-56
2022/09/08 00:31:13;;;;;;;1.60;1.02;;;24.20;59.10;;;;;;10132360;29;20536;-56
2022/09/08 00:36:15;;;;;;;1.67;1.20;;;24.20;59.10;;;;;;10115415;29;20080;-56
2022/09/08 00:41:16;;;;;;;1.98;1.00;;;24.20;59.10;;;;;;10131955;29;20060;-56
2022/09/08 00:46:29;;;;;;;2.00;1.35;;;24.20;59.10;;;;;;10131642;29;20124;-55
2022/09/08 00:51:30;;;;;;;2.28;1.25;;;24.20;59.00;;;;;;10131724;29;20104;-55
2022/09/08 00:56:32;;;;;;;2.53;1.48;;;24.20;59.10;;;;;;10130755;29;20583;-56
2022/09/08 01:01:34;;;;;;;2.42;1.40;;;24.20;59.10;;;;;;10114499;29;20040;-58
2022/09/08 01:17:43;;;;;;;3.00;1.33;;;24.20;59.40;;;;;;10131172;29;20048;-57
2022/09/08 01:23:04;;;;;;;1.92;1.00;;;24.20;59.40;;;;;;10130583;29;20037;-55
2022/09/08 01:28:12;;;;;;;2.42;0.93;;;24.20;59.40;;;;;;10130280;29;20052;-55
2022/09/08 01:33:14;;;;;;;1.90;1.15;;;24.20;59.40;;;;;;10112472;29;20140;-56
2022/09/08 01:38:15;;;;;;;2.28;1.35;;;24.20;59.40;;;;;;10112267;29;20029;-56
2022/09/08 01:43:16;;;;;;;1.45;1.17;;;24.20;59.40;;;;;;10112759;29;20039;-56
2022/09/08 01:48:17;;;;;;;1.95;1.10;;;24.20;59.80;;;;;;10129748;29;20119;-56
2022/09/08 01:53:19;;;;;;;2.67;1.55;;;24.20;59.50;;;;;;10129645;29;20568;-56
2022/09/08 01:58:20;;;;;;;2.42;1.48;;;24.10;59.50;;;;;;10128812;29;20127;-53
2022/09/08 02:03:20;;;;;;;2.30;1.20;;;24.20;59.60;;;;;;10129395;29;20125;-53
2022/09/08 02:08:21;;;;;;;1.63;0.85;;;24.20;59.70;;;;;;10129132;29;20065;-52
2022/09/08 02:13:22;;;;;;;1.38;1.00;;;24.10;59.70;;;;;;10127295;29;20127;-52
2022/09/08 02:18:23;;;;;;;3.80;1.27;;;24.10;59.70;;;;;;10112508;29;20032;-53
2022/09/08 02:23:24;;;;;;;1.55;1.05;;;24.10;59.70;;;;;;10128219;29;20040;-54
2022/09/08 02:28:25;;;;;;;3.13;1.20;;;24.10;59.70;;;;;;10128291;29;20115;-53
2022/09/08 02:33:29;;;;;;;2.05;0.88;;;24.10;59.80;;;;;;10127870;29;20518;-53
2022/09/08 02:38:30;;;;;;;1.65;1.20;;;24.10;59.80;;;;;;10111318;29;20033;-52
2022/09/08 02:43:30;;;;;;;2.05;1.10;;;24.10;59.90;;;;;;10126904;29;20033;-53
2022/09/08 02:48:31;;;;;;;2.60;1.27;;;24.10;59.80;;;;;;10127483;29;20101;-52
2022/09/08 02:53:32;;;;;;;1.83;1.13;;;24.10;59.90;;;;;;10125494;29;20040;-53
2022/09/08 02:58:34;;;;;;;2.47;1.52;;;24.10;59.80;;;;;;10125728;29;20535;-52
2022/09/08 03:03:35;;;;;;;2.55;1.30;;;24.10;59.90;;;;;;10126902;29;20032;-54
2022/09/08 03:08:36;;;;;;;1.50;0.88;;;24.10;59.90;;;;;;10126422;29;20041;-52
2022/09/08 03:13:39;;;;;;;1.05;0.90;;;24.10;60.00;;;;;;10126687;29;20135;-52
2022/09/08 03:18:40;;;;;;;2.30;1.20;;;24.00;60.00;;;;;;10126890;29;20643;-52
2022/09/08 03:23:40;;;;;;;2.72;1.35;;;24.00;60.00;;;;;;10109440;29;20037;-51
2022/09/08 03:28:43;;;;;;;2.30;1.02;;;24.00;60.00;;;;;;10126028;29;20438;-53
2022/09/08 03:33:44;;;;;;;1.27;1.05;;;24.00;60.00;;;;;;10125734;29;20069;-53
2022/09/08 03:38:45;;;;;;;2.78;1.10;;;24.10;60.10;;;;;;10125911;29;20551;-53
2022/09/08 03:43:49;;;;;;;1.85;1.23;;;24.00;60.00;;;;;;10125574;29;20045;-52
2022/09/08 03:48:50;;;;;;;1.42;1.08;;;24.00;60.00;;;;;;10109275;29;20071;-53
2022/09/08 03:53:53;;;;;;;2.03;1.20;;;24.00;60.10;;;;;;10130010;29;20136;-51
2022/09/08 03:58:53;;;;;;;2.22;1.25;;;24.00;60.10;;;;;;10137663;29;20041;-53
2022/09/08 04:03:54;;;;;;;2.30;1.20;;;24.00;60.00;;;;;;10136060;29;20443;-53
2022/09/08 04:08:55;;;;;;;1.77;1.42;;;24.00;60.30;;;;;;10119029;29;20064;-52
2022/09/08 04:13:55;;;;;;;1.77;1.00;;;24.00;60.30;;;;;;10138871;29;20080;-54
2022/09/08 04:18:56;;;;;;;1.77;0.93;;;24.10;60.60;;;;;;10137365;29;20393;-52
2022/09/08 04:23:59;;;;;;;2.00;1.10;;;24.10;60.50;;;;;;10136790;29;20055;-53
2022/09/08 04:29:00;;;;;;;2.00;1.10;;;24.00;60.30;;;;;;10119169;29;20055;-54
2022/09/08 04:34:02;;;;;;;2.00;1.27;;;24.00;60.50;;;;;;10138404;29;20742;-53
2022/09/08 04:39:03;;;;;;;2.53;1.00;;;24.00;60.40;;;;;;10130752;29;20056;-53
2022/09/08 04:44:05;;;;;;;2.97;1.80;;;24.00;60.40;;;;;;10120992;29;20040;-52
2022/09/08 04:49:06;;;;;;;2.38;1.27;;;24.00;60.40;;;;;;10136986;29;20093;-53
2022/09/08 04:54:06;;;;;;;3.13;1.00;;;24.00;60.40;;;;;;10137215;29;20568;-54
2022/09/08 04:59:07;;;;;;;2.53;1.50;;;24.00;60.70;;;;;;10137380;29;20140;-55
2022/09/08 05:04:09;;;;;;;2.78;1.08;;;24.00;60.90;;;;;;10134133;29;20043;-54
2022/09/08 05:09:11;;;;;;;4.20;1.10;;;24.00;61.00;;;;;;10130935;29;20115;-53
2022/09/08 05:14:12;;;;;;;3.17;1.60;;;24.00;61.20;;;;;;10135522;29;20064;-55
2022/09/08 05:19:13;;;;;;;3.70;1.80;;;24.00;61.10;;;;;;10153809;29;20772;-54
2022/09/08 05:24:13;;;;;;;2.50;0.98;;;24.00;61.50;;;;;;10130573;29;20161;-54
2022/09/08 05:29:14;;;;;;;2.85;1.38;;;24.00;60.90;;;;;;10130128;29;20028;-55
2022/09/08 05:34:15;;;;;;;2.03;1.10;;;24.00;60.70;;;;;;10128643;29;20124;-55
2022/09/08 05:39:15;;;;;;;5.47;1.95;;;24.00;61.40;;;;;;10128840;29;20210;-54
2022/09/08 05:44:16;;;;;;;8.27;2.10;;;24.00;61.50;;;;;;10128586;29;20112;-55
2022/09/08 05:49:17;;;;;;;9.30;2.03;;;24.00;61.70;;;;;;10129031;29;20108;-52
2022/09/08 05:54:18;;;;;;;9.13;2.10;;;24.00;61.90;;;;;;10108412;29;20123;-53
2022/09/08 05:59:18;;;;;;;5.88;1.75;;;24.00;61.50;;;;;;10108358;29;20131;-54
2022/09/08 06:04:19;;;;;;;6.97;1.60;;;24.00;61.60;;;;;;10120901;29;20231;-54
2022/09/08 06:09:20;;;;;;;4.32;1.55;;;24.00;61.20;;;;;;10119549;29;20120;-52
2022/09/08 06:14:20;;;;;;;5.07;2.00;;;24.00;61.20;;;;;;10124122;29;20112;-53
2022/09/08 06:19:21;;;;;;;5.30;2.05;;;24.00;61.30;;;;;;10130440;29;20492;-53
2022/09/08 06:24:22;;;;;;;6.53;1.48;;;23.90;61.30;;;;;;10127327;29;20021;-53
2022/09/08 06:29:59;;;;;;;6.57;2.30;;;23.90;61.30;;;;;;10124881;29;20024;-54
2022/09/08 06:35:17;;;;;;;4.57;1.45;;;23.90;61.40;;;;;;10127252;29;20078;-53
2022/09/08 06:40:38;;;;;;;5.55;2.13;;;23.90;61.70;;;;;;10112219;29;20059;-53
2022/09/08 06:45:54;;;;;;;4.43;1.50;;;24.00;61.90;;;;;;10113344;29;20037;-53
2022/09/08 06:51:17;;;;;;;5.10;1.70;;;23.90;61.50;;;;;;10155491;29;20052;-54
2022/09/08 06:56:47;;;;;;;10.07;1.80;;;23.90;61.10;;;;;;10119690;29;20451;-52
2022/09/08 07:02:14;;;;;;;3.58;1.40;;;23.90;61.30;;;;;;10105411;29;20041;-54
2022/09/08 07:07:47;;;;;;;5.38;1.70;;;23.90;61.40;;;;;;10120358;29;20076;-53
2022/09/08 07:13:14;;;;;;;6.38;1.67;;;23.90;61.20;;;;;;10124309;29;20500;-54
2022/09/08 07:18:28;;;;;;;5.78;1.80;;;23.90;61.40;;;;;;10137224;29;20036;-52
2022/09/08 07:23:36;;;;;;;3.20;1.52;;;23.90;61.40;;;;;;10108063;29;20396;-54
2022/09/08 07:28:47;;;;;;;4.47;1.67;;;23.80;61.40;;;;;;10107467;29;20131;-54
2022/09/08 07:34:06;;;;;;;2.90;1.50;;;23.80;61.40;;;;;;10107517;29;20131;-54
2022/09/08 07:39:22;;;;;;;2.55;1.02;;;23.80;61.40;;;;;;10108511;29;20025;-54
2022/09/08 07:44:23;;;;;;;4.60;1.60;;;23.80;61.40;;;;;;10107953;29;20036;-54
2022/09/08 07:49:52;;;;;;;2.22;1.42;;;23.80;61.30;;;;;;10123504;29;20021;-51
2022/09/08 07:55:22;;;;;;;2.92;1.20;;;23.80;61.30;;;;;;10123018;29;20053;-54
2022/09/08 08:00:32;;;;;;;;;;;23.80;61.30;;;;;;10124119;29;20457;-52
2022/09/08 08:06:06;;;;;;;4.82;1.70;;;23.80;60.90;;;;;;10123756;29;19907;-50
2022/09/08 08:11:29;;;;;;;1.98;1.10;;;23.80;61.10;;;;;;10131375;29;20040;-54
2022/09/08 08:17:02;;;;;;;2.60;1.83;;;23.80;61.20;;;;;;10109956;29;20032;-54
2022/09/08 08:22:11;;;;;;;2.03;1.50;;;23.80;61.10;;;;;;10112572;29;20037;-54
2022/09/08 08:27:28;;;;;;;2.78;1.70;;;23.80;61.30;;;;;;10123045;29;20036;-52
2022/09/08 08:32:36;;;;;;;3.00;1.77;;;23.80;61.20;;;;;;10105899;29;20130;-53
2022/09/08 08:37:39;;;;;;;1.70;1.40;;;23.80;61.20;;;;;;10123188;29;20029;-53
2022/09/08 08:43:07;;;;;;;1.75;1.30;;;23.80;61.20;;;;;;10110890;29;20052;-54
2022/09/08 08:48:17;;;;;;;2.22;1.30;;;23.80;61.20;;;;;;10129987;29;20029;-53
2022/09/08 08:53:36;;;;;;;2.15;1.05;;;23.80;61.20;;;;;;10129482;29;20726;-54
2022/09/08 08:59:11;;;;;;;3.03;1.65;;;23.80;61.10;;;;;;10129298;29;20224;-54
2022/09/08 09:04:59;;;;;;;2.75;1.40;;;23.80;61.00;;;;;;10129027;29;20028;-54
2022/09/08 09:10:45;;;;;;;2.60;1.35;;;23.80;61.10;;;;;;10100818;29;20048;-53
2022/09/08 09:16:03;;;;;;;2.13;1.75;;;23.80;61.00;;;;;;10104582;29;20417;-52
2022/09/08 09:21:13;;;;;;;1.93;1.27;;;23.80;61.10;;;;;;10139577;29;20251;-54
2022/09/08 09:26:22;;;;;;;2.13;1.20;;;23.80;61.10;;;;;;10128255;29;20464;-54
2022/09/08 09:32:14;;;;;;;2.85;1.10;;;23.80;61.00;;;;;;10128331;29;20041;-54
2022/09/08 09:37:33;;;;;;;2.70;1.50;;;23.80;61.00;;;;;;10093807;29;20033;-54
2022/09/08 09:43:00;;;;;;;2.17;1.42;;;23.80;61.20;;;;;;10112243;29;20044;-53
2022/09/08 09:48:41;;;;;;;2.17;1.17;;;23.80;61.30;;;;;;10089296;29;20033;-54
2022/09/08 09:54:10;;;;;;;4.38;1.50;;;23.80;61.30;;;;;;10127022;29;20052;-54
2022/09/08 09:59:48;;;;;;;;;;;23.70;61.20;;;;;;10127154;29;20083;-53
2022/09/08 10:05:40;;;;;;;2.35;1.17;;;23.80;60.80;;;;;;10127138;29;20383;-53
2022/09/08 10:11:10;;;;;;;3.30;1.48;;;23.80;61.20;;;;;;10126423;29;20036;-55
2022/09/08 10:16:56;;;;;;;1.70;1.00;;;23.70;61.20;;;;;;10112588;29;20028;-53
2022/09/08 10:22:50;;;;;;;1.98;1.23;;;23.80;61.30;;;;;;10104132;29;20036;-54
2022/09/08 10:28:30;;;;;;;2.00;1.00;;;23.80;61.20;;;;;;10126005;29;20079;-53
2022/09/08 10:33:59;;;;;;;2.80;1.95;;;23.70;61.20;;;;;;10117518;29;20044;-55
2022/09/08 10:39:45;;;;;;;2.97;1.45;;;23.80;61.60;;;;;;10125909;29;20092;-53
2022/09/08 10:45:11;;;;;;;2.17;1.40;;;23.80;61.50;;;;;;10099854;29;20504;-55
2022/09/08 10:50:31;;;;;;;2.10;1.33;;;23.80;61.60;;;;;;10125363;29;20216;-53
2022/09/08 10:56:15;;;;;;;2.63;1.60;;;23.80;61.60;;;;;;10108001;29;20052;-55
2022/09/08 11:01:22;;;;;;;4.22;2.28;;;23.80;61.50;;;;;;10110512;29;20036;-54
2022/09/08 11:06:47;;;;;;;3.60;1.45;;;23.80;65.90;;;;;;10124046;29;20483;-54
2022/09/08 11:12:06;;;;;;;1.70;1.45;;;23.80;65.40;;;;;;10123750;29;20056;-54
2022/09/08 11:17:26;;;;;;;1.95;1.40;;;23.90;65.40;;;;;;10128384;29;20658;-53
2022/09/08 11:22:51;;;;;;;;;;;23.80;65.00;;;;;;10128650;29;20092;-52
2022/09/08 11:28:21;;;;;;;2.55;1.60;;;23.80;64.60;;;;;;10124278;29;20276;-53
2022/09/08 11:33:51;;;;;;;1.83;1.30;;;23.80;64.50;;;;;;10123368;29;20531;-52
2022/09/08 11:39:23;;;;;;;2.70;1.25;;;23.80;64.30;;;;;;10123554;29;20032;-54
2022/09/08 11:44:29;;;;;;;3.38;1.60;;;23.80;63.20;;;;;;10123560;29;20112;-55
2022/09/08 11:50:13;;;;;;;3.38;1.48;;;23.90;62.90;;;;;;10122990;29;20046;-55
2022/09/08 11:55:56;;;;;;;2.15;1.33;;;23.90;62.80;;;;;;10123458;29;20557;-54
2022/09/08 12:01:24;;;;;;;1.60;1.38;;;23.90;62.60;;;;;;10123109;29;20021;-53
2022/09/08 12:06:59;;;;;;;3.67;1.73;;;24.00;62.60;;;;;;10123307;29;20385;-54
2022/09/08 12:12:25;;;;;;;3.38;1.40;;;24.00;62.50;;;;;;10123092;29;20040;-55
2022/09/08 12:18:21;;;;;;;2.03;1.05;;;24.00;62.30;;;;;;10119974;29;20052;-54
2022/09/08 12:23:59;;;;;;;3.60;1.30;;;24.00;62.40;;;;;;10055073;29;20048;-54
2022/09/08 12:29:20;;;;;;;2.45;1.38;;;24.00;62.40;;;;;;10115356;29;20032;-56
2022/09/08 12:35:05;;;;;;;3.30;1.55;;;24.00;62.20;;;;;;10129928;29;20045;-54
2022/09/08 12:40:44;;;;;;;2.38;1.38;;;24.00;62.10;;;;;;10129876;29;20076;-55
2022/09/08 12:46:13;;;;;;;1.52;1.10;;;24.00;62.00;;;;;;10130162;29;20036;-54
2022/09/08 12:51:38;;;;;;;1.83;1.25;;;24.00;62.00;;;;;;10114055;29;20049;-53
2022/09/08 12:57:05;;;;;;;2.13;1.45;;;24.00;62.20;;;;;;10129289;29;20508;-55
2022/09/08 13:02:34;;;;;;;2.53;1.30;;;24.00;62.10;;;;;;10129196;29;20041;-55
2022/09/08 13:07:53;;;;;;;1.63;1.08;;;24.00;62.00;;;;;;10129148;29;20037;-55
2022/09/08 13:13:34;;;;;;;2.40;1.20;;;24.00;61.90;;;;;;10113182;29;20068;-55
2022/09/08 13:18:40;;;;;;;2.28;1.50;;;24.00;61.70;;;;;;10140482;29;20037;-53
2022/09/08 13:23:47;;;;;;;1.40;1.00;;;24.00;61.80;;;;;;10128188;29;20056;-54
2022/09/08 13:29:21;;;;;;;2.95;1.38;;;24.00;61.70;;;;;;10127009;29;20484;-54
2022/09/08 13:34:34;;;;;;;2.20;1.40;;;24.00;61.70;;;;;;10111923;29;20041;-54
2022/09/08 13:40:17;;;;;;;1.50;1.10;;;24.00;61.80;;;;;;10127775;29;20615;-52
2022/09/08 13:45:36;;;;;;;2.05;1.63;;;24.00;61.70;;;;;;10127799;29;20107;-55
2022/09/08 13:51:20;;;;;;;3.20;1.10;;;24.00;61.80;;;;;;10127178;29;20695;-55
2022/09/08 13:57:09;;;;;;;2.45;1.35;;;23.90;61.70;;;;;;10126829;29;20119;-55
2022/09/08 14:02:33;;;;;;;1.90;1.33;;;23.90;61.70;;;;;;10125252;29;20073;-53
2022/09/08 14:07:34;;;;;;;2.45;1.10;;;23.90;61.90;;;;;;10109772;29;20092;-52
2022/09/08 14:12:35;;;;;;;3.22;1.20;;;23.90;61.80;;;;;;10125841;29;20166;-54
2022/09/08 14:18:03;;;;;;;3.65;1.60;;;23.80;61.70;;;;;;10116966;29;20143;-53
2022/09/08 14:23:41;;;;;;;2.35;1.65;;;23.90;61.80;;;;;;10126671;29;20101;-54
2022/09/08 14:28:53;;;;;;;1.85;1.20;;;23.80;61.80;;;;;;10125646;29;20037;-54
2022/09/08 14:34:10;;;;;;;4.70;1.33;;;23.80;61.70;;;;;;10108420;29;20051;-54
2022/09/08 14:39:34;;;;;;;3.10;1.20;;;23.80;61.60;;;;;;10108896;29;20132;-55
2022/09/08 14:45:06;;;;;;;2.22;1.20;;;23.80;61.50;;;;;;10124107;29;20029;-53
2022/09/08 14:50:22;;;;;;;1.92;1.40;;;23.80;61.40;;;;;;10124637;29;20056;-53
2022/09/08 14:56:18;;;;;;;1.77;1.20;;;23.80;61.50;;;;;;10107591;29;20128;-53
2022/09/08 15:01:38;;;;;;;1.88;1.20;;;23.80;61.50;;;;;;10105578;29;20036;-55
2022/09/08 15:06:45;;;;;;;1.17;0.77;;;23.80;61.40;;;;;;10123972;29;20714;-53
2022/09/08 15:11:54;;;;;;;1.50;1.20;;;23.80;61.40;;;;;;10124010;29;20083;-53
2022/09/08 15:17:15;;;;;;;3.03;1.10;;;23.80;61.40;;;;;;10109671;29;20128;-53
2022/09/08 15:23:01;;;;;;;3.20;1.40;;;23.80;61.30;;;;;;10131897;29;20455;-56
2022/09/08 15:28:25;;;;;;;1.33;1.10;;;23.80;61.40;;;;;;10108414;29;20107;-55
2022/09/08 15:33:44;;;;;;;3.03;1.23;;;23.80;61.40;;;;;;10132897;29;20048;-55
2022/09/08 15:39:10;;;;;;;1.83;1.20;;;23.80;61.20;;;;;;10123140;29;20036;-53
2022/09/08 15:44:31;;;;;;;2.75;1.40;;;23.80;61.20;;;;;;10108286;29;20055;-53
2022/09/08 15:49:45;;;;;;;7.88;5.20;;;23.80;62.70;;;;;;10123446;29;20047;-55
2022/09/08 15:55:23;;;;;;;11.10;3.38;;;24.00;65.90;;;;;;10123215;29;20057;-54
2022/09/08 16:00:54;;;;;;;4.15;1.90;;;24.00;64.10;;;;;;10122042;29;20540;-54
2022/09/08 16:06:03;;;;;;;6.82;2.53;;;23.90;62.80;;;;;;10122211;29;20036;-54
2022/09/08 16:17:16;;;;;;;26.90;9.25;;;23.80;62.70;;;;;;10039591;29;20037;-54
2022/09/08 16:22:26;;;;;;;25.05;8.77;;;23.90;62.30;;;;;;10018635;29;20033;-55
2022/09/08 16:27:54;;;;;;;25.10;7.53;;;23.90;62.60;;;;;;10041672;29;20084;-56
2022/09/08 16:33:17;;;;;;;25.58;7.30;;;23.90;62.70;;;;;;10041620;29;20390;-54
2022/09/08 16:38:52;;;;;;;17.23;5.88;;;24.00;62.90;;;;;;10025492;29;20038;-55
2022/09/08 16:44:29;;;;;;;25.45;5.50;;;24.10;63.10;;;;;;10031265;29;20094;-55
2022/09/08 16:49:39;;;;;;;15.13;4.97;;;24.10;63.20;;;;;;10116265;29;20056;-54
2022/09/08 16:55:23;;;;;;;27.10;7.05;;;24.00;63.10;;;;;;10123559;29;20051;-55
2022/09/08 17:00:26;;;;;;;21.90;5.60;;;24.00;63.10;;;;;;10131588;29;20412;-57
2022/09/08 17:05:32;;;;;;;24.83;5.82;;;24.00;63.10;;;;;;10123823;29;20051;-54
2022/09/08 17:10:45;;;;;;;30.50;6.28;;;24.10;63.20;;;;;;10127152;29;20455;-52
2022/09/08 17:16:37;;;;;;;62.25;9.80;;;24.10;63.10;;;;;;10106538;29;20568;-56
2022/09/08 17:22:05;;;;;;;25.90;6.90;;;24.00;63.30;;;;;;10125384;29;20381;-55
2022/09/08 17:27:09;;;;;;;39.40;6.70;;;24.00;63.50;;;;;;10129713;29;20045;-55
2022/09/08 17:32:17;;;;;;;28.40;6.15;;;23.90;63.40;;;;;;10130110;29;20552;-56
2022/09/08 17:37:20;;;;;;;23.95;6.45;;;23.90;63.60;;;;;;10114117;29;20169;-53
2022/09/08 17:43:05;;;;;;;30.38;6.00;;;24.00;64.00;;;;;;10113188;29;20037;-58
2022/09/08 17:49:07;;;;;;;24.38;5.72;;;24.00;64.20;;;;;;10129635;29;20076;-54
2022/09/08 17:54:42;;;;;;;20.17;5.28;;;24.00;64.00;;;;;;10105171;29;20048;-57
2022/09/08 18:00:10;;;;;;;21.42;6.50;;;23.90;63.80;;;;;;10129213;29;20063;-52
2022/09/08 18:05:19;;;;;;;15.40;4.55;;;23.90;63.50;;;;;;10127802;29;20040;-54
2022/09/08 18:10:25;;;;;;;13.52;3.83;;;23.90;63.80;;;;;;10127867;29;20044;-53
2022/09/08 18:15:26;;;;;;;13.63;4.28;;;23.90;63.60;;;;;;10125838;29;20036;-53
2022/09/08 18:20:32;;;;;;;21.80;5.30;;;23.90;63.50;;;;;;10122921;29;20076;-54
2022/09/08 18:25:45;;;;;;;19.38;4.20;;;23.90;63.20;;;;;;10127672;29;20025;-54
2022/09/08 18:30:46;;;;;;;25.15;5.45;;;23.90;63.00;;;;;;10127508;29;20104;-53
2022/09/08 18:36:09;;;;;;;15.35;4.75;;;23.90;62.90;;;;;;10127516;29;20032;-52
2022/09/08 18:41:10;;;;;;;16.08;5.30;;;23.90;62.90;;;;;;10114798;29;20451;-54
2022/09/08 18:47:08;;;;;;;15.20;4.65;;;23.90;63.20;;;;;;10126879;29;20047;-54
2022/09/08 18:52:28;;;;;;;11.00;3.90;;;23.90;62.80;;;;;;10125462;29;20366;-52
2022/09/08 18:57:33;;;;;;;13.75;3.90;;;23.90;62.80;;;;;;10109582;29;20131;-53
2022/09/08 19:02:41;;;;;;;9.55;3.90;;;23.90;62.90;;;;;;10109460;29;20048;-51
2022/09/08 19:08:04;;;;;;;9.30;2.72;;;23.90;62.90;;;;;;10123053;29;20044;-53
2022/09/08 19:13:34;;;;;;;7.43;2.80;;;23.90;62.90;;;;;;10102851;29;20384;-52
2022/09/08 19:18:46;;;;;;;12.68;3.47;;;23.90;62.80;;;;;;10104995;29;20047;-54
2022/09/08 19:24:23;;;;;;;5.50;2.63;;;23.90;62.90;;;;;;10101674;29;20037;-54
2022/09/08 19:29:56;;;;;;;7.55;3.00;;;23.90;62.90;;;;;;10103404;29;20127;-53
2022/09/08 19:35:15;;;;;;;8.60;2.60;;;23.90;62.80;;;;;;10098161;29;20140;-53
2022/09/08 19:40:45;;;;;;;10.73;3.85;;;23.90;62.90;;;;;;10122902;29;20020;-54
2022/09/08 19:46:15;;;;;;;11.70;3.17;;;24.00;63.70;;;;;;10119839;29;20120;-55
2022/09/08 19:51:31;;;;;;;10.05;2.92;;;23.90;63.50;;;;;;10114808;29;20052;-53
2022/09/08 19:56:40;;;;;;;5.50;2.42;;;23.90;63.50;;;;;;10124231;29;20099;-54
2022/09/08 20:01:50;;;;;;;;;;;23.90;63.50;;;;;;10123131;29;20049;-52
2022/09/08 20:07:21;;;;;;;7.72;2.25;;;23.90;63.50;;;;;;10118293;29;19919;-54
2022/09/08 20:12:30;;;;;;;5.35;2.15;;;23.80;63.30;;;;;;10081006;29;20492;-54
2022/09/08 20:17:49;;;;;;;5.30;1.75;;;23.80;63.20;;;;;;10117117;29;20029;-57
2022/09/08 20:23:25;;;;;;;3.80;1.23;;;23.80;63.10;;;;;;10118600;29;20534;-57
2022/09/08 20:29:00;;;;;;;4.20;1.85;;;23.80;63.00;;;;;;10108123;29;20036;-55
2022/09/08 20:34:21;;;;;;;5.18;1.67;;;23.80;62.90;;;;;;10122477;29;20497;-56
2022/09/08 20:40:09;;;;;;;3.03;1.33;;;23.80;62.60;;;;;;10131306;29;20025;-57
2022/09/08 20:45:53;;;;;;;3.72;1.20;;;23.80;62.70;;;;;;10114785;29;20574;-57
2022/09/08 20:51:11;;;;;;;3.58;1.40;;;23.80;62.60;;;;;;10091999;29;20057;-56
2022/09/08 20:56:58;;;;;;;2.70;1.10;;;23.80;62.50;;;;;;10130567;29;20420;-56
2022/09/08 21:02:11;;;;;;;4.88;1.52;;;23.80;62.30;;;;;;10115744;29;20054;-55
2022/09/08 21:07:56;;;;;;;2.72;1.33;;;23.80;62.30;;;;;;10130364;29;20646;-57
2022/09/08 21:13:20;;;;;;;4.57;1.58;;;23.80;62.30;;;;;;10116069;29;20152;-57
2022/09/08 21:18:46;;;;;;;2.83;1.25;;;23.80;62.20;;;;;;10115523;29;20024;-58
2022/09/08 21:24:07;;;;;;;3.75;1.67;;;23.80;62.10;;;;;;10128556;29;20056;-56
2022/09/08 21:29:25;;;;;;;2.10;0.98;;;23.80;62.00;;;;;;10129853;29;20480;-57
2022/09/08 21:35:20;;;;;;;2.27;1.13;;;23.80;62.00;;;;;;10129442;29;20080;-57
2022/09/08 21:41:00;;;;;;;2.53;1.35;;;23.80;62.00;;;;;;10129324;29;20807;-57
2022/09/08 21:46:18;;;;;;;4.85;1.27;;;23.80;61.90;;;;;;10114594;29;20821;-55
2022/09/08 21:51:28;;;;;;;1.83;1.00;;;23.80;61.50;;;;;;10127426;29;20092;-54
2022/09/08 21:56:44;;;;;;;3.20;1.33;;;23.80;61.70;;;;;;10129051;29;20112;-56
2022/09/08 22:01:54;;;;;;;2.25;1.23;;;23.80;61.70;;;;;;10112517;29;20519;-56
2022/09/08 22:06:56;;;;;;;2.63;1.40;;;23.70;61.50;;;;;;10112053;29;20047;-58
2022/09/08 22:12:11;;;;;;;3.47;1.67;;;23.70;61.60;;;;;;10124536;29;20044;-59
2022/09/08 22:17:46;;;;;;;2.80;1.92;;;23.80;61.80;;;;;;10133030;29;20388;-57
2022/09/08 22:23:50;;;;;;;3.35;1.20;;;23.70;61.80;;;;;;10131146;29;20044;-55
2022/09/08 22:28:51;;;;;;;1.63;1.02;;;23.70;61.60;;;;;;10100105;29;20053;-55
2022/09/08 22:34:20;;;;;;;2.17;1.23;;;23.70;61.60;;;;;;10127916;29;20066;-56
2022/09/08 22:39:47;;;;;;;4.23;1.20;;;23.70;61.50;;;;;;10112103;29;20032;-55
2022/09/08 22:44:58;;;;;;;1.65;0.80;;;23.70;61.40;;;;;;10117363;29;20689;-56
2022/09/08 22:50:01;;;;;;;2.13;0.95;;;23.70;61.60;;;;;;10110490;29;20041;-57
2022/09/08 22:55:12;;;;;;;1.40;0.95;;;23.70;61.50;;;;;;10125077;29;20048;-57
2022/09/08 23:00:21;;;;;;;2.95;1.38;;;23.70;61.60;;;;;;10106583;29;20060;-56
2022/09/08 23:05:27;;;;;;;;;;;23.70;61.50;;;;;;10126728;29;20045;-56
2022/09/08 23:10:29;;;;;;;4.18;0.90;;;23.60;61.40;;;;;;10109746;29;20355;-56
2022/09/08 23:16:12;;;;;;;4.05;1.02;;;23.60;61.50;;;;;;10109588;29;20052;-57
2022/09/08 23:21:46;;;;;;;1.83;0.77;;;23.60;61.50;;;;;;10122974;29;20093;-55
2022/09/08 23:27:05;;;;;;;1.00;0.73;;;23.60;61.50;;;;;;10126213;29;20147;-56
2022/09/08 23:33:15;;;;;;;1.30;0.75;;;23.60;61.30;;;;;;10124415;29;20053;-55
2022/09/08 23:38:18;;;;;;;1.67;1.00;;;23.60;61.40;;;;;;10109794;29;20037;-57
2022/09/08 23:43:33;;;;;;;1.40;0.80;;;23.60;61.50;;;;;;10125562;29;20092;-54
2022/09/08 23:48:33;;;;;;;1.60;0.90;;;23.60;61.90;;;;;;10109467;29;20039;-55
2022/09/08 23:53:35;;;;;;;2.17;1.10;;;23.60;61.30;;;;;;10108236;29;20663;-57
2022/09/08 23:58:37;;;;;;;2.72;1.45;;;23.60;61.40;;;;;;10125067;29;20044;-56
